Aeroporto :
LOGIN :

Iscrizione | Disclaimer

   EN    FR    IT 

 










Sommario :    VFR   VFR Marginale   IFR   IFR Intensivo   IFR Molto Intensivo
Visibilità : 
Base nubi : 
>= 8 km
>= 3000ft
5 / 8 km
1000 / 3000 ft
1500m / 5 km
500 / 1000 ft
800 / 1500m
200 / 500 ft
< 800m
< 200 ft
Simboli :   Temporali  Nebbia  Neve Forte  Precipitazioni Forti  Vento > 20 kt
SIGMETs :   Varie  Temporali  Ghiacco  Turbolenza  Onda orograficha  Ceneri Vulcaniche






- Altitudine del aeroporto : 423 ft
- Codice IATA : PIS


LFBI - Poitiers

ULTIMO METAR :
  • 211230Z AUTO VRB03KT 9999 OVC013 11/10 Q1020 BECMG BKN030

METARs OBSOLETI :
  • 211200Z AUTO 15003KT 090V200 9999 OVC010 11/10 Q1021 BECMG BKN030
  • 211130Z AUTO VRB02KT 9999 OVC007 10/10 Q1020 BECMG BKN030
  • 211100Z AUTO VRB02KT 9999 OVC004 10/10 Q1020 BECMG BKN020
  • 211030Z AUTO VRB01KT 5000 BR OVC003 10/10 Q1020 BECMG BKN020
  • 211000Z AUTO 14003KT 050V210 4800 BR OVC002 09/09 Q1020 TEMPO VV/// BECMG 9999 NSW

TAF TAF LFBI
Valido dal 21 a 12 ore il 22 a 12 ore UTC


211100Z 2112/2212 20005KT 9999 BKN005
BECMG 2112/2114 BKN030
PROB40 2121/2210 3000 BR
PROB30 2200/2208 0500 FG VV///
BECMG 2210/2212 04010KT
PROB30
TEMPO 2210/2212 BKN008



MetMap, La meteo Aeronautica in un colpo d'occhio ! - Copyright ORBIFLY Dicembre 2007 - Disclaimer

ORBIFLY MET'MAP TEAM :

Programmazione e sviluppo : Alexandra Zaïnal
Concezione e sviluppo : Baudouin d'Aumeries
Co-Programmazione e sviluppo : Marc-Olivier Méhu
Supporto tecnico e logistico : Manuel Goepfert
Aiuto per la traduzione : Arnaldo La Scala

Contatto : metmap@orbifly.com




FONTI E CREDITI :

   NOAA